Time;durP1;ratioP1;P1;durP2;ratioP2;P2;SDS_P1;SDS_P2;PMS_P1;PMS_P2;Temp;Humidity;BMP_temperature;BMP_pressure;BME280_temperature;BME280_humidity;BME280_pressure;Samples;Min_cycle;Max_cycle;Signal;HPM_P1;HPM_P2
2023/09/13 00:02:15;;;;;;;6.97;5.05;;;19.70;99.90;;;;;;4979955;28;20046;-75
2023/09/13 00:04:41;;;;;;;8.98;5.20;;;19.70;99.90;;;;;;4987519;28;20069;-75
2023/09/13 00:07:06;;;;;;;9.68;5.43;;;19.70;99.90;;;;;;4989352;28;20127;-77
2023/09/13 00:09:32;;;;;;;6.93;5.10;;;19.60;99.90;;;;;;4996702;28;20044;-75
2023/09/13 00:11:58;;;;;;;8.25;5.78;;;19.70;99.90;;;;;;4994598;28;20149;-75
2023/09/13 00:14:24;;;;;;;10.30;6.22;;;19.70;99.90;;;;;;5012952;28;20512;-75
2023/09/13 00:16:50;;;;;;;7.30;4.97;;;19.70;99.90;;;;;;5013737;28;20038;-75
2023/09/13 00:19:16;;;;;;;7.60;5.35;;;19.70;99.90;;;;;;4996008;28;20049;-75
2023/09/13 00:21:42;;;;;;;9.40;5.75;;;19.70;99.90;;;;;;4995535;28;20560;-75
2023/09/13 00:24:09;;;;;;;10.52;6.13;;;19.70;99.90;;;;;;4995842;28;20058;-75
2023/09/13 00:26:35;;;;;;;11.90;6.82;;;19.70;99.90;;;;;;4996479;28;20518;-75
2023/09/13 00:29:00;;;;;;;9.88;6.15;;;19.70;99.90;;;;;;4994269;28;20076;-75
2023/09/13 00:31:26;;;;;;;10.50;6.78;;;19.70;99.90;;;;;;5006147;28;20450;-76
2023/09/13 00:33:51;;;;;;;9.63;7.07;;;19.70;99.90;;;;;;4985873;28;20046;-75
2023/09/13 00:36:17;;;;;;;12.38;6.47;;;19.70;99.90;;;;;;4993017;28;20057;-75
2023/09/13 00:38:43;;;;;;;7.97;6.10;;;19.70;99.90;;;;;;4996424;28;20045;-75
2023/09/13 00:41:08;;;;;;;10.55;6.93;;;19.70;99.90;;;;;;4978689;28;20041;-75
2023/09/13 00:43:34;;;;;;;10.98;7.28;;;19.70;99.90;;;;;;4995372;28;20125;-75
2023/09/13 00:45:59;;;;;;;12.23;6.65;;;19.70;99.90;;;;;;5012468;28;20057;-75
2023/09/13 00:48:26;;;;;;;16.13;8.05;;;19.70;99.90;;;;;;4994991;28;20040;-75
2023/09/13 00:50:53;;;;;;;14.77;8.40;;;19.70;99.90;;;;;;4995283;28;20413;-75
2023/09/13 00:53:19;;;;;;;16.25;8.73;;;19.70;99.90;;;;;;4994089;28;20034;-76
2023/09/13 00:55:47;;;;;;;13.13;8.35;;;19.70;99.90;;;;;;4993956;28;20041;-75
2023/09/13 00:58:12;;;;;;;15.20;9.23;;;19.70;99.90;;;;;;4996292;28;20045;-76
2023/09/13 01:00:39;;;;;;;14.32;8.50;;;19.60;99.90;;;;;;5014124;28;20050;-76
2023/09/13 01:03:05;;;;;;;13.02;8.65;;;19.70;99.90;;;;;;4990723;28;20046;-75
2023/09/13 01:05:31;;;;;;;15.85;9.60;;;19.70;99.90;;;;;;4994103;28;20038;-76
2023/09/13 01:07:57;;;;;;;13.63;9.35;;;19.70;99.90;;;;;;4991072;28;20038;-76
2023/09/13 01:10:23;;;;;;;16.25;9.13;;;19.70;99.90;;;;;;4980138;28;20405;-75
2023/09/13 01:12:48;;;;;;;11.02;8.02;;;19.70;99.90;;;;;;5012054;28;20038;-75
2023/09/13 01:15:15;;;;;;;17.40;9.00;;;19.60;99.90;;;;;;4995428;28;20042;-76
2023/09/13 01:17:58;;;;;;;17.83;9.00;;;19.60;99.90;;;;;;4995460;28;20038;-75
2023/09/13 01:20:56;;;;;;;15.57;9.10;;;19.60;99.90;;;;;;4978855;28;20038;-76
2023/09/13 01:23:43;;;;;;;17.95;8.75;;;19.60;99.90;;;;;;4953994;28;20475;-76
2023/09/13 01:26:37;;;;;;;18.85;8.95;;;19.60;99.90;;;;;;4991299;28;20502;-76
2023/09/13 01:29:05;;;;;;;14.45;9.43;;;19.60;99.90;;;;;;4963682;28;20149;-76
2023/09/13 01:31:32;;;;;;;20.63;9.35;;;19.60;99.90;;;;;;5011192;28;20045;-75
2023/09/13 01:33:57;;;;;;;17.63;9.27;;;19.60;99.90;;;;;;4976221;28;20034;-75
2023/09/13 01:36:24;;;;;;;15.23;8.77;;;19.60;99.90;;;;;;4987786;28;20677;-76
2023/09/13 01:38:50;;;;;;;17.70;9.50;;;19.60;99.90;;;;;;4994219;28;20046;-76
2023/09/13 01:41:24;;;;;;;16.08;8.93;;;19.60;99.90;;;;;;4993952;28;20049;-75
2023/09/13 01:43:53;;;;;;;15.27;7.78;;;19.60;99.90;;;;;;4986667;28;20049;-76
2023/09/13 01:46:26;;;;;;;15.63;7.85;;;19.60;99.90;;;;;;4993773;28;20057;-75
2023/09/13 01:48:56;;;;;;;14.93;7.75;;;19.50;99.90;;;;;;4987593;28;20060;-76
2023/09/13 01:51:25;;;;;;;15.77;8.20;;;19.50;99.90;;;;;;5010334;28;20034;-75
2023/09/13 01:53:50;;;;;;;17.30;7.70;;;19.60;99.90;;;;;;4992931;28;20041;-75
2023/09/13 01:56:21;;;;;;;15.52;8.20;;;19.50;99.90;;;;;;4990694;28;20124;-76
2023/09/13 01:58:49;;;;;;;14.20;7.78;;;19.50;99.90;;;;;;4994218;28;20194;-76
2023/09/13 02:01:15;;;;;;;20.88;8.27;;;19.50;99.90;;;;;;4978167;28;20505;-75
2023/09/13 02:03:42;;;;;;;14.20;7.25;;;19.50;99.90;;;;;;5006195;28;20092;-76
2023/09/13 02:06:07;;;;;;;12.20;7.20;;;19.50;99.90;;;;;;5009400;28;20072;-75
2023/09/13 02:08:33;;;;;;;17.20;7.07;;;19.50;99.90;;;;;;4995017;28;20069;-75
2023/09/13 02:10:59;;;;;;;15.68;6.43;;;19.50;99.90;;;;;;4993901;28;20057;-76
2023/09/13 02:13:24;;;;;;;15.55;6.47;;;19.50;99.90;;;;;;4978866;28;20050;-76
2023/09/13 02:15:50;;;;;;;13.55;6.85;;;19.50;99.90;;;;;;5007927;28;20035;-76
2023/09/13 02:18:16;;;;;;;15.57;6.50;;;19.50;99.90;;;;;;4977969;28;20132;-76
2023/09/13 02:20:42;;;;;;;15.60;6.43;;;19.40;99.90;;;;;;4990272;28;20041;-76
2023/09/13 02:23:07;;;;;;;13.02;6.20;;;19.50;99.90;;;;;;4993353;28;20058;-76
2023/09/13 02:25:37;;;;;;;12.85;6.45;;;19.40;99.90;;;;;;4977418;28;20403;-76
2023/09/13 02:28:03;;;;;;;13.57;6.30;;;19.40;99.90;;;;;;5012184;28;20042;-76
2023/09/13 02:30:30;;;;;;;13.68;5.75;;;19.40;99.90;;;;;;4993761;28;20049;-76
2023/09/13 02:32:56;;;;;;;14.57;6.93;;;19.40;99.90;;;;;;4994028;28;20078;-76
2023/09/13 02:35:21;;;;;;;13.98;5.70;;;19.40;99.90;;;;;;4988283;28;20074;-76
2023/09/13 02:37:48;;;;;;;9.57;5.00;;;19.40;99.90;;;;;;4994001;28;20040;-75
2023/09/13 02:40:13;;;;;;;13.18;5.63;;;19.40;99.90;;;;;;5011017;28;20553;-75
2023/09/13 02:42:39;;;;;;;13.77;5.57;;;19.30;99.90;;;;;;4992678;28;20130;-75
2023/09/13 02:45:05;;;;;;;15.95;5.60;;;19.40;99.90;;;;;;4987835;28;20077;-75
2023/09/13 02:47:31;;;;;;;10.32;5.07;;;19.30;99.90;;;;;;4993939;28;20050;-75
2023/09/13 02:49:57;;;;;;;10.90;5.47;;;19.40;99.90;;;;;;5010957;28;20038;-76
2023/09/13 02:52:33;;;;;;;9.02;4.50;;;19.30;99.90;;;;;;4992868;28;20049;-75
2023/09/13 02:55:05;;;;;;;11.18;5.13;;;19.30;99.90;;;;;;5011777;28;20042;-76
2023/09/13 02:57:31;;;;;;;12.55;4.55;;;19.30;99.90;;;;;;4995875;28;20069;-76
2023/09/13 02:59:57;;;;;;;9.02;4.22;;;19.30;99.90;;;;;;5017482;28;20066;-76
2023/09/13 03:02:23;;;;;;;12.45;4.28;;;19.30;99.90;;;;;;5013212;28;20495;-76
2023/09/13 03:04:53;;;;;;;11.15;4.40;;;19.20;99.90;;;;;;4999085;28;20461;-76
2023/09/13 03:07:19;;;;;;;12.25;4.55;;;19.20;99.90;;;;;;5014266;28;20044;-76
2023/09/13 03:09:46;;;;;;;11.40;4.18;;;19.20;99.90;;;;;;5014664;28;20034;-76
2023/09/13 03:12:12;;;;;;;11.60;3.80;;;19.20;99.90;;;;;;4991106;28;20082;-75
2023/09/13 03:14:38;;;;;;;8.88;3.85;;;19.20;99.90;;;;;;5013727;28;20034;-76
2023/09/13 03:17:04;;;;;;;12.27;4.28;;;19.20;99.90;;;;;;4980781;28;20053;-76
2023/09/13 03:19:30;;;;;;;8.77;3.78;;;19.20;99.90;;;;;;4979029;28;20056;-76
2023/09/13 03:21:57;;;;;;;11.93;4.03;;;19.20;99.90;;;;;;4995380;28;20046;-76
2023/09/13 03:24:22;;;;;;;9.10;3.78;;;19.20;99.90;;;;;;4991283;28;20042;-75
2023/09/13 03:26:48;;;;;;;9.98;4.38;;;19.20;99.90;;;;;;4998430;28;20077;-76
2023/09/13 03:29:15;;;;;;;14.43;4.85;;;19.20;99.90;;;;;;5008227;28;20049;-76
2023/09/13 03:31:41;;;;;;;11.68;4.22;;;19.20;99.90;;;;;;4993397;28;20048;-76
2023/09/13 03:34:06;;;;;;;10.88;4.00;;;19.20;99.90;;;;;;5015711;28;20038;-76
2023/09/13 03:36:32;;;;;;;12.18;4.32;;;19.10;99.90;;;;;;5017644;28;20128;-76
2023/09/13 03:38:58;;;;;;;10.63;3.90;;;19.10;99.90;;;;;;4997699;28;20150;-76
2023/09/13 03:41:26;;;;;;;7.68;3.40;;;19.10;99.90;;;;;;4995121;28;20576;-76
2023/09/13 03:43:52;;;;;;;10.80;3.65;;;19.10;99.90;;;;;;4996607;28;20037;-76
2023/09/13 03:46:18;;;;;;;8.13;3.50;;;19.10;99.90;;;;;;4980404;28;20042;-75
2023/09/13 03:48:44;;;;;;;10.77;3.67;;;19.00;99.90;;;;;;4996009;28;20406;-74
2023/09/13 03:51:09;;;;;;;11.02;3.92;;;19.00;99.90;;;;;;4995386;28;20073;-76
2023/09/13 03:53:35;;;;;;;8.82;3.35;;;19.00;99.90;;;;;;5013618;28;20041;-76
2023/09/13 03:56:02;;;;;;;9.93;3.22;;;18.90;99.90;;;;;;4992789;28;20100;-76
2023/09/13 03:58:28;;;;;;;9.32;3.45;;;18.90;99.90;;;;;;4993918;28;20077;-76
2023/09/13 04:00:54;;;;;;;11.48;3.70;;;18.90;99.90;;;;;;5010327;28;20049;-76
2023/09/13 04:03:21;;;;;;;12.30;3.85;;;18.80;99.90;;;;;;4993341;28;20517;-76
2023/09/13 04:05:46;;;;;;;9.05;3.75;;;18.80;99.90;;;;;;4995990;28;20050;-76
2023/09/13 04:08:12;;;;;;;9.98;3.50;;;18.80;99.90;;;;;;4991741;28;20573;-76
2023/09/13 04:10:38;;;;;;;10.10;3.55;;;18.70;99.90;;;;;;4995032;28;20103;-76
2023/09/13 04:13:04;;;;;;;10.65;3.72;;;18.70;99.90;;;;;;4991797;28;20038;-76
2023/09/13 04:15:30;;;;;;;7.40;3.25;;;18.70;99.90;;;;;;4994162;28;20045;-76
2023/09/13 04:17:56;;;;;;;10.40;3.80;;;18.70;99.90;;;;;;4993965;28;20077;-76
2023/09/13 04:20:22;;;;;;;13.98;3.72;;;18.60;99.90;;;;;;4990799;28;20038;-76
2023/09/13 04:22:47;;;;;;;8.85;3.72;;;18.70;99.90;;;;;;4994470;28;20065;-76
2023/09/13 04:25:13;;;;;;;13.35;4.70;;;18.60;99.90;;;;;;4992009;28;20124;-76
2023/09/13 04:27:46;;;;;;;9.57;3.60;;;18.60;99.90;;;;;;4995755;28;20045;-76
2023/09/13 04:30:12;;;;;;;10.00;4.00;;;18.60;99.90;;;;;;4977087;28;20038;-76
2023/09/13 04:32:38;;;;;;;9.13;4.30;;;18.60;99.90;;;;;;4995159;28;20068;-75
2023/09/13 04:35:04;;;;;;;9.52;3.95;;;18.60;99.90;;;;;;4995611;28;20042;-75
2023/09/13 04:37:30;;;;;;;8.10;3.70;;;18.60;99.90;;;;;;5007334;28;20042;-75
2023/09/13 04:39:57;;;;;;;9.93;4.28;;;18.50;99.90;;;;;;4995307;28;20050;-75
2023/09/13 04:42:23;;;;;;;9.90;4.00;;;18.50;99.90;;;;;;5012312;28;20049;-75
2023/09/13 04:44:48;;;;;;;11.95;4.20;;;18.50;99.90;;;;;;4995244;28;20045;-75
2023/09/13 04:47:14;;;;;;;11.38;3.85;;;18.40;99.90;;;;;;4978875;28;20049;-75
2023/09/13 04:49:40;;;;;;;12.23;4.32;;;18.50;99.90;;;;;;5062330;22;20047;-82
2023/09/13 04:52:07;;;;;;;10.98;4.13;;;18.50;99.90;;;;;;4961241;28;20454;-82
2023/09/13 04:54:34;;;;;;;10.05;4.55;;;18.50;99.90;;;;;;4959629;28;20043;-81
2023/09/13 04:57:00;;;;;;;11.23;4.40;;;18.40;99.90;;;;;;4959645;28;20043;-80
2023/09/13 04:59:48;;;;;;;13.63;4.72;;;18.40;99.90;;;;;;4945029;28;20574;-79
2023/09/13 05:02:14;;;;;;;16.77;4.82;;;18.40;99.90;;;;;;4959997;28;20415;-81
2023/09/13 05:04:40;;;;;;;9.95;4.97;;;18.40;99.90;;;;;;4979198;28;20133;-81
2023/09/13 05:07:06;;;;;;;10.80;4.50;;;18.40;99.90;;;;;;4951006;28;20086;-81
2023/09/13 05:09:32;;;;;;;11.20;4.22;;;18.40;99.90;;;;;;4968659;28;20126;-81
2023/09/13 05:11:59;;;;;;;10.82;4.20;;;18.30;99.90;;;;;;4953043;28;20043;-81
2023/09/13 05:14:25;;;;;;;8.35;4.20;;;18.30;99.90;;;;;;4954105;28;20044;-80
2023/09/13 05:16:51;;;;;;;12.57;3.60;;;18.20;99.90;;;;;;4972030;28;20319;-78
2023/09/13 05:19:18;;;;;;;12.50;2.83;;;18.20;99.90;;;;;;4960544;28;20038;-79
2023/09/13 05:21:43;;;;;;;6.22;2.40;;;18.10;99.90;;;;;;4960976;28;20050;-80
2023/09/13 05:24:09;;;;;;;6.07;2.10;;;18.10;99.90;;;;;;4951394;28;20051;-78
2023/09/13 05:26:35;;;;;;;5.38;1.95;;;17.90;99.90;;;;;;4962885;28;20056;-78
2023/09/13 05:29:02;;;;;;;8.70;2.65;;;17.90;99.90;;;;;;4958623;28;20516;-78
2023/09/13 05:31:27;;;;;;;6.13;1.75;;;17.90;99.90;;;;;;4964150;28;20585;-79
2023/09/13 05:33:53;;;;;;;5.85;1.70;;;17.80;99.90;;;;;;4942795;28;20030;-81
2023/09/13 05:36:19;;;;;;;4.57;1.85;;;17.80;99.90;;;;;;4968362;28;20045;-81
2023/09/13 05:38:44;;;;;;;6.30;1.70;;;17.70;99.90;;;;;;4951752;28;20065;-80
2023/09/13 05:41:11;;;;;;;4.43;1.80;;;17.70;99.90;;;;;;4965861;28;20066;-81
2023/09/13 05:43:38;;;;;;;6.63;2.08;;;17.70;99.90;;;;;;4958687;28;20047;-81
2023/09/13 05:46:04;;;;;;;4.10;2.00;;;17.70;99.90;;;;;;4960807;28;20047;-81
2023/09/13 05:48:30;;;;;;;5.78;1.98;;;17.60;99.90;;;;;;4958936;28;20058;-81
2023/09/13 05:50:56;;;;;;;6.65;1.92;;;17.60;99.90;;;;;;4987825;28;20047;-81
2023/09/13 05:53:21;;;;;;;6.50;2.20;;;17.50;99.90;;;;;;4983718;28;20035;-81
2023/09/13 05:55:47;;;;;;;5.65;2.17;;;17.40;99.90;;;;;;4960543;28;20069;-79
2023/09/13 05:58:13;;;;;;;4.60;1.83;;;17.30;99.90;;;;;;4968847;28;20035;-79
2023/09/13 06:00:42;;;;;;;5.25;1.95;;;17.30;99.90;;;;;;4952958;28;20034;-79
2023/09/13 06:03:08;;;;;;;4.32;1.65;;;17.20;99.90;;;;;;4967922;28;20085;-78
2023/09/13 06:05:35;;;;;;;5.45;2.00;;;17.10;99.90;;;;;;4948540;28;20078;-79
2023/09/13 06:08:01;;;;;;;8.18;1.80;;;17.00;99.90;;;;;;4973897;28;20065;-78
2023/09/13 06:10:26;;;;;;;5.57;1.83;;;17.00;99.90;;;;;;4944636;28;20503;-78
2023/09/13 06:12:52;;;;;;;7.10;1.55;;;16.90;99.90;;;;;;4960982;28;20081;-79
2023/09/13 06:15:18;;;;;;;5.50;1.83;;;16.80;99.90;;;;;;4962913;28;20067;-81
2023/09/13 06:17:44;;;;;;;5.28;1.83;;;16.80;99.90;;;;;;4959438;28;20035;-81
2023/09/13 06:20:10;;;;;;;4.95;1.50;;;16.70;99.90;;;;;;4966028;28;20047;-80
2023/09/13 06:22:35;;;;;;;4.20;1.48;;;16.70;99.90;;;;;;4977267;28;20388;-82
2023/09/13 06:25:01;;;;;;;4.10;1.42;;;16.70;99.90;;;;;;4961673;28;20504;-81
2023/09/13 06:27:27;;;;;;;3.95;1.55;;;16.70;99.90;;;;;;4965375;28;20422;-81
2023/09/13 06:29:52;;;;;;;4.90;1.67;;;16.70;99.90;;;;;;4947510;28;20755;-81
2023/09/13 06:32:18;;;;;;;5.78;1.88;;;16.60;99.90;;;;;;4967363;28;20041;-81
2023/09/13 06:34:43;;;;;;;3.38;1.50;;;16.60;99.90;;;;;;4955142;28;20376;-81
2023/09/13 06:37:09;;;;;;;5.60;1.58;;;16.60;99.90;;;;;;4965385;28;20070;-82
2023/09/13 06:39:35;;;;;;;6.60;2.40;;;16.60;99.90;;;;;;4977538;28;20035;-82
2023/09/13 06:42:20;;;;;;;4.00;1.50;;;16.60;99.90;;;;;;4953252;28;20047;-84
2023/09/13 06:44:46;;;;;;;4.07;1.45;;;16.60;99.90;;;;;;4961926;28;20042;-83
2023/09/13 06:47:14;;;;;;;3.92;1.60;;;16.60;99.90;;;;;;4954283;28;20055;-83
2023/09/13 06:49:40;;;;;;;7.75;1.80;;;16.60;99.90;;;;;;4961793;28;20038;-82
2023/09/13 06:52:05;;;;;;;5.47;1.52;;;16.50;99.90;;;;;;4960315;28;20539;-81
2023/09/13 06:54:31;;;;;;;4.65;1.90;;;16.50;99.90;;;;;;4966980;28;20049;-82
2023/09/13 06:56:56;;;;;;;4.35;1.63;;;16.50;99.90;;;;;;4951263;28;20477;-82
2023/09/13 06:59:22;;;;;;;5.10;2.08;;;16.60;99.90;;;;;;4964107;28;20045;-82
2023/09/13 07:01:48;;;;;;;4.85;2.17;;;16.50;99.90;;;;;;4969772;28;20051;-82
2023/09/13 07:04:13;;;;;;;5.88;1.50;;;16.50;99.90;;;;;;4976921;28;20390;-84
2023/09/13 07:06:39;;;;;;;5.68;1.80;;;16.50;99.90;;;;;;4958934;28;20047;-86
2023/09/13 07:09:06;;;;;;;5.55;1.67;;;16.50;99.90;;;;;;4964613;28;20073;-86
2023/09/13 07:11:31;;;;;;;4.55;1.85;;;16.40;99.90;;;;;;4953529;28;20031;-81
2023/09/13 07:13:59;;;;;;;5.30;1.92;;;16.50;99.90;;;;;;4962783;28;20035;-84
2023/09/13 07:16:24;;;;;;;5.50;2.05;;;16.50;99.90;;;;;;4952283;28;20111;-83
2023/09/13 07:18:50;;;;;;;5.43;1.90;;;16.50;99.90;;;;;;4973752;28;20066;-83
2023/09/13 07:21:16;;;;;;;5.03;1.80;;;16.50;99.90;;;;;;4975913;28;20042;-81
2023/09/13 07:23:41;;;;;;;8.98;2.35;;;16.50;99.90;;;;;;4969825;28;20043;-84
2023/09/13 07:26:07;;;;;;;6.75;2.50;;;16.50;99.90;;;;;;4973741;28;20077;-81
2023/09/13 07:28:33;;;;;;;6.50;2.15;;;16.50;99.90;;;;;;4972192;28;20062;-81
2023/09/13 07:30:59;;;;;;;8.55;2.47;;;16.50;99.90;;;;;;4961021;28;20495;-81
2023/09/13 07:33:25;;;;;;;6.70;2.40;;;16.50;99.90;;;;;;4960594;28;20103;-80
2023/09/13 07:35:50;;;;;;;10.13;2.92;;;16.50;99.90;;;;;;4969921;28;20054;-85
2023/09/13 07:38:16;;;;;;;7.78;2.38;;;16.60;99.90;;;;;;4962469;28;20037;-85
2023/09/13 07:40:42;;;;;;;10.73;2.70;;;16.80;99.90;;;;;;4961299;28;20060;-84
2023/09/13 07:43:07;;;;;;;9.38;2.47;;;16.70;99.90;;;;;;4979943;28;20039;-82
2023/09/13 07:45:34;;;;;;;7.43;3.10;;;16.70;99.90;;;;;;4968841;28;20170;-83
2023/09/13 07:48:00;;;;;;;6.25;2.65;;;16.70;99.90;;;;;;4968672;28;20035;-81
2023/09/13 07:50:36;;;;;;;8.07;2.90;;;16.70;99.90;;;;;;4967412;28;20046;-82
2023/09/13 07:53:03;;;;;;;9.63;2.85;;;16.70;99.90;;;;;;4950996;29;20058;-82
2023/09/13 07:55:29;;;;;;;9.02;3.00;;;16.70;99.90;;;;;;4974054;28;20035;-81
2023/09/13 07:57:55;;;;;;;12.00;2.80;;;16.70;99.90;;;;;;4974595;28;20042;-81
2023/09/13 08:00:20;;;;;;;9.75;3.10;;;16.70;99.90;;;;;;4979818;28;20035;-81
2023/09/13 08:02:47;;;;;;;11.75;3.03;;;16.80;99.90;;;;;;4952258;28;20499;-81
2023/09/13 08:05:13;;;;;;;9.13;2.60;;;16.70;99.90;;;;;;4949285;28;20583;-81
2023/09/13 08:07:44;;;;;;;9.10;2.92;;;16.80;99.90;;;;;;4979160;28;20125;-81
2023/09/13 08:10:10;;;;;;;9.98;3.22;;;16.70;99.90;;;;;;4956017;28;20039;-83
2023/09/13 08:12:35;;;;;;;9.77;3.53;;;16.80;99.90;;;;;;4951667;28;20054;-83
2023/09/13 08:15:03;;;;;;;10.75;3.47;;;16.80;99.90;;;;;;4949709;28;20035;-84
2023/09/13 08:17:29;;;;;;;9.43;3.00;;;16.80;99.90;;;;;;4932950;28;20499;-83
2023/09/13 08:19:56;;;;;;;13.88;3.55;;;16.90;99.90;;;;;;4952252;28;20043;-83
2023/09/13 08:22:22;;;;;;;13.93;3.55;;;16.90;99.90;;;;;;4955124;28;20043;-83
2023/09/13 08:24:48;;;;;;;8.60;3.28;;;17.00;99.90;;;;;;4963317;28;20050;-81
2023/09/13 08:27:13;;;;;;;12.00;3.45;;;17.10;99.90;;;;;;4964807;28;20043;-82
2023/09/13 08:29:40;;;;;;;6.82;2.88;;;17.10;99.90;;;;;;4950240;28;20122;-82
2023/09/13 08:32:06;;;;;;;12.07;3.40;;;17.10;99.90;;;;;;4954872;28;20050;-82
2023/09/13 08:34:33;;;;;;;12.63;3.03;;;17.00;99.90;;;;;;4971073;28;20394;-82
2023/09/13 08:36:58;;;;;;;10.90;3.38;;;17.00;99.90;;;;;;4955552;28;20047;-82
2023/09/13 08:39:24;;;;;;;10.52;3.30;;;16.90;99.90;;;;;;4975049;28;20038;-82
2023/09/13 08:41:53;;;;;;;10.23;3.25;;;16.80;99.90;;;;;;4948064;28;20245;-82
2023/09/13 08:44:20;;;;;;;8.18;3.20;;;16.90;99.90;;;;;;4967915;28;20510;-82
2023/09/13 08:46:56;;;;;;;9.80;3.28;;;16.90;99.90;;;;;;4958187;28;20059;-82
2023/09/13 08:49:24;;;;;;;12.45;3.40;;;16.80;99.90;;;;;;4955507;28;20047;-82
2023/09/13 08:51:54;;;;;;;12.60;3.00;;;16.90;99.90;;;;;;4975631;28;20050;-81
2023/09/13 08:54:21;;;;;;;13.80;3.38;;;16.90;99.90;;;;;;4957325;28;20043;-81
2023/09/13 08:56:47;;;;;;;12.45;3.40;;;17.00;99.90;;;;;;4974892;28;20230;-80
2023/09/13 08:59:15;;;;;;;10.65;3.08;;;17.10;99.90;;;;;;4946523;29;20095;-80
2023/09/13 09:01:49;;;;;;;11.20;3.05;;;17.20;99.90;;;;;;4962234;28;20031;-80
2023/09/13 09:04:17;;;;;;;11.07;3.50;;;17.30;99.90;;;;;;4945144;28;20046;-81
2023/09/13 09:06:43;;;;;;;12.82;3.33;;;17.30;99.90;;;;;;4946987;28;20043;-80
2023/09/13 09:09:09;;;;;;;9.20;3.28;;;17.40;99.90;;;;;;4953821;28;20081;-80
2023/09/13 09:11:38;;;;;;;8.93;3.30;;;17.50;99.90;;;;;;4962653;28;20106;-80
2023/09/13 09:14:04;;;;;;;10.57;2.70;;;17.50;99.90;;;;;;4950208;28;20126;-83
2023/09/13 09:16:31;;;;;;;9.30;2.85;;;17.50;99.90;;;;;;4959442;28;20141;-83
2023/09/13 09:19:00;;;;;;;10.45;3.53;;;17.50;99.90;;;;;;4950500;28;20303;-82
2023/09/13 09:21:26;;;;;;;9.52;2.67;;;17.50;99.90;;;;;;4974361;28;20057;-83
2023/09/13 09:23:56;;;;;;;14.10;3.30;;;17.60;99.90;;;;;;4957624;28;20466;-81
2023/09/13 09:26:22;;;;;;;10.35;2.92;;;17.70;99.90;;;;;;4969553;28;20503;-80
2023/09/13 09:28:48;;;;;;;8.30;2.88;;;17.70;99.90;;;;;;4951438;28;20385;-80
2023/09/13 09:31:16;;;;;;;6.07;2.50;;;17.70;99.90;;;;;;4938084;28;20559;-80
2023/09/13 09:33:42;;;;;;;8.60;2.67;;;17.70;99.90;;;;;;4938371;28;20042;-81
2023/09/13 09:36:10;;;;;;;10.25;2.83;;;17.70;99.90;;;;;;4952477;28;20054;-81
2023/09/13 09:38:36;;;;;;;7.68;2.40;;;17.80;99.90;;;;;;4959283;28;20995;-80
2023/09/13 09:41:03;;;;;;;9.32;3.72;;;17.70;99.90;;;;;;4957733;28;20050;-81
2023/09/13 09:43:33;;;;;;;9.55;3.00;;;17.60;99.90;;;;;;4958784;28;20047;-81
2023/09/13 09:45:59;;;;;;;8.15;2.65;;;17.60;99.90;;;;;;4959333;28;20097;-80
2023/09/13 09:48:26;;;;;;;10.95;2.67;;;17.60;99.90;;;;;;4978927;28;20042;-83
2023/09/13 09:50:53;;;;;;;8.77;2.70;;;17.60;99.90;;;;;;4966594;28;20116;-80
2023/09/13 09:53:23;;;;;;;9.05;2.78;;;17.50;99.90;;;;;;4949198;28;20078;-81
2023/09/13 09:55:49;;;;;;;7.20;2.20;;;17.50;99.90;;;;;;4969119;28;20049;-81
2023/09/13 09:58:15;;;;;;;8.75;2.72;;;17.50;99.90;;;;;;4928256;28;20415;-81
2023/09/13 10:00:54;;;;;;;9.48;2.70;;;17.50;99.90;;;;;;4956755;28;20042;-81
2023/09/13 10:03:21;;;;;;;8.68;2.65;;;17.50;99.90;;;;;;4951780;28;20097;-80
2023/09/13 10:06:03;;;;;;;9.68;2.60;;;17.50;99.90;;;;;;4941516;28;20038;-81
2023/09/13 10:08:49;;;;;;;7.97;3.10;;;17.60;99.90;;;;;;4948015;28;20127;-80
2023/09/13 10:11:21;;;;;;;12.68;2.70;;;17.60;99.90;;;;;;4955542;28;20053;-80
2023/09/13 10:13:47;;;;;;;9.23;2.70;;;17.70;99.90;;;;;;4966766;28;20053;-92
2023/09/13 10:16:14;;;;;;;;;;;17.90;99.90;;;;;;4959454;28;20051;-83
2023/09/13 10:18:43;;;;;;;;;;;18.30;99.90;;;;;;4953847;28;19922;-84
2023/09/13 10:21:10;;;;;;;7.90;2.60;;;18.60;99.90;;;;;;4957114;28;19928;-83
2023/09/13 10:23:40;;;;;;;;;;;19.00;99.90;;;;;;4958031;28;20038;-84
2023/09/13 10:26:09;;;;;;;;;;;19.40;99.90;;;;;;4979326;28;19918;-80
2023/09/13 10:28:37;;;;;;;8.77;2.37;;;19.60;99.90;;;;;;4949848;28;19917;-81
2023/09/13 10:31:07;;;;;;;7.32;2.00;;;19.60;99.90;;;;;;4945375;29;20050;-84
2023/09/13 10:33:38;;;;;;;7.80;2.42;;;20.00;99.90;;;;;;4960205;28;20398;-82
2023/09/13 10:36:07;;;;;;;6.80;2.40;;;20.10;99.90;;;;;;4961268;28;20090;-80
2023/09/13 10:38:49;;;;;;;7.10;2.20;;;20.00;99.90;;;;;;4953007;28;20078;-80
2023/09/13 10:41:17;;;;;;;6.00;1.88;;;19.80;99.90;;;;;;4965998;28;20046;-83
2023/09/13 10:43:44;;;;;;;8.43;2.13;;;19.60;99.90;;;;;;4968673;28;20516;-86
2023/09/13 10:46:10;;;;;;;5.85;2.03;;;19.40;99.90;;;;;;4948749;29;20063;-83
2023/09/13 10:48:38;;;;;;;8.13;2.20;;;19.10;99.90;;;;;;4958764;28;20039;-84
2023/09/13 10:51:03;;;;;;;;;;;18.90;99.90;;;;;;4973096;28;20055;-82
2023/09/13 10:53:30;;;;;;;9.82;2.40;;;18.70;99.90;;;;;;4960573;28;19938;-86
2023/09/13 10:55:56;;;;;;;8.88;2.50;;;18.60;99.90;;;;;;4996844;23;20042;-76
2023/09/13 10:58:22;;;;;;;5.40;2.30;;;18.40;99.90;;;;;;4987444;28;20046;-76
2023/09/13 11:00:54;;;;;;;8.88;2.72;;;18.30;99.90;;;;;;4989095;28;20409;-77
2023/09/13 11:03:21;;;;;;;7.32;2.65;;;18.30;99.90;;;;;;4989992;28;20056;-77
2023/09/13 11:05:50;;;;;;;7.45;2.65;;;18.30;99.90;;;;;;4987216;28;20430;-76
2023/09/13 11:08:36;;;;;;;10.75;2.88;;;18.30;99.90;;;;;;4991864;28;20042;-76
2023/09/13 11:11:18;;;;;;;9.23;2.78;;;18.20;99.90;;;;;;4988501;28;20062;-76
2023/09/13 11:13:55;;;;;;;9.27;3.17;;;18.40;99.90;;;;;;4994100;28;20403;-75
2023/09/13 11:16:23;;;;;;;8.18;3.10;;;18.40;99.90;;;;;;4983908;28;20411;-76
2023/09/13 11:18:50;;;;;;;7.85;2.63;;;18.50;99.90;;;;;;4990079;28;20076;-76
2023/09/13 11:21:19;;;;;;;9.65;2.80;;;18.50;99.90;;;;;;4989541;28;20368;-77
2023/09/13 11:23:49;;;;;;;7.78;2.75;;;18.60;99.90;;;;;;5000680;28;20051;-77
2023/09/13 11:26:15;;;;;;;9.75;2.65;;;18.70;99.90;;;;;;4972761;28;20066;-78
2023/09/13 11:28:46;;;;;;;7.97;2.97;;;18.70;99.90;;;;;;4991072;28;20576;-77
2023/09/13 11:31:17;;;;;;;6.70;2.78;;;18.80;99.90;;;;;;4990864;28;20046;-76
2023/09/13 11:33:55;;;;;;;6.30;2.65;;;18.90;99.90;;;;;;4991832;28;20046;-76
2023/09/13 11:36:22;;;;;;;7.35;2.70;;;18.90;99.90;;;;;;4989122;28;20129;-77
2023/09/13 11:38:53;;;;;;;7.10;2.58;;;19.10;99.90;;;;;;4996834;28;20494;-77
2023/09/13 11:41:19;;;;;;;7.25;2.78;;;19.10;99.90;;;;;;4993890;28;20074;-77
2023/09/13 11:43:45;;;;;;;10.77;3.05;;;19.20;99.90;;;;;;4989958;28;20045;-76
2023/09/13 11:46:12;;;;;;;6.90;2.50;;;19.30;99.90;;;;;;4993600;28;20042;-74
2023/09/13 11:48:41;;;;;;;6.10;2.60;;;19.40;99.90;;;;;;4985688;28;20117;-77
2023/09/13 11:51:21;;;;;;;6.20;2.35;;;19.40;99.90;;;;;;4990278;28;20044;-77
2023/09/13 11:53:49;;;;;;;7.88;2.65;;;19.60;99.90;;;;;;4984323;28;20034;-79
2023/09/13 11:56:36;;;;;;;6.90;2.60;;;19.50;99.90;;;;;;4992256;28;20048;-76
2023/09/13 11:59:02;;;;;;;5.63;2.40;;;19.60;99.90;;;;;;4987808;28;20053;-76
2023/09/13 12:01:29;;;;;;;5.72;2.50;;;19.70;99.90;;;;;;4989664;28;20042;-76
2023/09/13 12:03:57;;;;;;;5.82;2.50;;;19.80;99.90;;;;;;4983745;28;20050;-76
2023/09/13 12:06:23;;;;;;;5.97;2.42;;;19.80;99.90;;;;;;4995882;28;20038;-77
2023/09/13 12:08:49;;;;;;;8.68;2.60;;;19.80;99.90;;;;;;4989614;28;20096;-75
2023/09/13 12:11:15;;;;;;;7.32;2.60;;;19.80;99.90;;;;;;4988800;28;20047;-78
2023/09/13 12:13:41;;;;;;;;;;;19.90;99.90;;;;;;5009812;28;20137;-78
2023/09/13 12:16:07;;;;;;;7.10;2.35;;;19.90;99.90;;;;;;4988996;28;19922;-79
2023/09/13 12:18:34;;;;;;;5.45;2.70;;;19.90;99.90;;;;;;4984845;28;20049;-79
2023/09/13 12:21:00;;;;;;;8.77;3.17;;;19.90;99.90;;;;;;4989945;28;20049;-78
2023/09/13 12:23:26;;;;;;;5.82;3.00;;;19.90;99.90;;;;;;4982340;28;20035;-77
2023/09/13 12:25:54;;;;;;;;;;;20.00;99.90;;;;;;4983779;28;20043;-76
2023/09/13 12:28:27;;;;;;;5.28;2.95;;;20.00;99.90;;;;;;4989389;28;19947;-80
2023/09/13 12:30:54;;;;;;;6.10;3.05;;;20.20;99.90;;;;;;4972234;28;20059;-76
2023/09/13 12:33:22;;;;;;;6.93;2.97;;;20.20;99.90;;;;;;4989540;28;20053;-76
2023/09/13 12:35:48;;;;;;;6.38;3.25;;;20.30;99.90;;;;;;4989903;28;20049;-77
2023/09/13 12:38:16;;;;;;;7.90;3.22;;;20.30;99.90;;;;;;4988327;28;20497;-77
2023/09/13 12:40:47;;;;;;;6.03;2.95;;;20.40;99.90;;;;;;4983602;28;20049;-77
2023/09/13 12:43:13;;;;;;;5.82;2.95;;;20.40;99.90;;;;;;4985642;28;20082;-77
2023/09/13 12:45:40;;;;;;;7.45;2.90;;;20.40;99.90;;;;;;4988020;28;20049;-77
2023/09/13 12:48:06;;;;;;;7.57;2.80;;;20.30;99.90;;;;;;4991997;28;20042;-77